This is the latest recevied weather packets stored in our database for station/object K2RMB. If no packets are shown the sender has not sent any weather packets the latest 10 day(s).
| Time | Temp. | Humidity | Pressure | Rain* | Wind** | Luminosity | Snow |
|---|---|---|---|---|---|---|---|
| 1777129489 | 8.89° C | 54% | 1017.8 hPa | 0 mm | - | 364 W/m² | - |
| 1777129188 | 9.44° C | 53% | 1017.8 hPa | 0 mm | - | 337 W/m² | - |
| 1777128884 | 8.89° C | 53% | 1018.1 hPa | 0 mm | - | 371 W/m² | - |
| 1777128581 | 8.89° C | 55% | 1017.8 hPa | 0 mm | - | 381 W/m² | - |
| 1777128278 | 8.89° C | 57% | 1018.1 hPa | 0 mm | - | 332 W/m² | - |
| 1777127976 | 8.33° C | 54% | 1018.1 hPa | 0 mm | - | 425 W/m² | - |
| 1777127673 | 8.89° C | 56% | 1018.1 hPa | 0 mm | - | 320 W/m² | - |
| 1777127370 | 8.33° C | 55% | 1017.8 hPa | 0 mm | - | 404 W/m² | - |
| 1777127066 | 8.33° C | 54% | 1017.8 hPa | 0 mm | - | 317 W/m² | - |
| 1777126762 | 8.33° C | 54% | 1017.8 hPa | 0 mm | - | 328 W/m² | - |
| 1777126458 | 8.33° C | 52% | 1017.8 hPa | 0 mm | - | 335 W/m² | - |
| 1777126154 | 8.33° C | 53% | 1017.8 hPa | 0 mm | - | 318 W/m² | - |
| 1777125850 | 8.33° C | 55% | 1017.8 hPa | 0 mm | - | 307 W/m² | - |
| 1777125547 | 8.33° C | 54% | 1017.8 hPa | 0 mm | - | 278 W/m² | - |
| 1777125241 | 8.33° C | 53% | 1017.8 hPa | 0 mm | - | 292 W/m² | - |
| 1777124937 | 8.89° C | 53% | 1017.4 hPa | 0 mm | - | 285 W/m² | - |
| 1777124635 | 8.33° C | 52% | 1017.8 hPa | 0 mm | - | 394 W/m² | - |
| 1777124329 | 8.33° C | 53% | 1017.8 hPa | 0 mm | - | 367 W/m² | - |
| 1777124027 | 8.33° C | 51% | 1017.8 hPa | 0 mm | - | 343 W/m² | - |
| 1777123723 | 8.89° C | 52% | 1017.8 hPa | 0 mm | - | 383 W/m² | - |
| 1777123419 | 8.33° C | 52% | 1017.8 hPa | 0 mm | - | 504 W/m² | - |
| 1777123115 | 8.33° C | 52% | 1017.4 hPa | 0 mm | - | 350 W/m² | - |
| 1777122812 | 8.33° C | 53% | 1017.4 hPa | 0 mm | - | 318 W/m² | - |
| 1777122508 | 7.78° C | 53% | 1017.8 hPa | 0 mm | - | 487 W/m² | - |
| 1777122205 | 7.78° C | 51% | 1017.4 hPa | 0 mm | - | 381 W/m² | - |
* Rain latest hour (hover to see other rain measurements)
** Current wind speed in m/s (hover to see current wind gust speed)